Time,TemperatureF,DewpointF,PressureIn,WindDirection,WindDirectionDegrees,WindSpeedMPH,WindSpeedGustMPH,Humidity,HourlyPrecipIn,Conditions,Clouds,dailyrainin,SoftwareType,DateUTC
2013-08-07 00:03:00,77.0,68.5,29.85,NE,41,0.0,0.0,75,0.00,,,0.00,WeatherDisplay:10.36,2013-08-07 05:03:00,
2013-08-07 00:08:00,77.0,68.5,29.85,NE,40,0.0,0.0,75,0.00,,,0.00,WeatherDisplay:10.36,2013-08-07 05:08:00,
2013-08-07 00:13:00,76.8,68.3,29.85,NE,41,0.0,0.0,75,0.00,,,0.00,WeatherDisplay:10.36,2013-08-07 05:13:00,
2013-08-07 00:18:00,76.8,68.3,29.85,NE,41,0.0,0.0,75,0.00,,,0.00,WeatherDisplay:10.36,2013-08-07 05:18:00,
2013-08-07 00:23:00,76.8,68.3,29.85,NE,41,0.0,0.0,75,0.00,,,0.00,WeatherDisplay:10.36,2013-08-07 05:23:00,
2013-08-07 00:28:00,76.8,68.3,29.85,NE,41,0.0,0.0,75,0.00,,,0.00,WeatherDisplay:10.36,2013-08-07 05:28:00,
2013-08-07 00:33:00,76.6,68.1,29.85,NE,40,0.0,0.0,75,0.00,,,0.00,WeatherDisplay:10.36,2013-08-07 05:33:00,
2013-08-07 00:38:00,76.6,68.1,29.85,NE,41,0.0,0.0,75,0.00,,,0.00,WeatherDisplay:10.36,2013-08-07 05:38:00,
2013-08-07 00:43:00,76.6,68.1,29.85,NE,40,0.0,0.0,75,0.00,,,0.00,WeatherDisplay:10.36,2013-08-07 05:43:00,
2013-08-07 00:48:00,76.5,67.9,29.85,NE,41,0.0,0.0,75,0.00,,,0.00,WeatherDisplay:10.36,2013-08-07 05:48:00,
2013-08-07 00:53:00,76.5,67.9,29.85,NE,41,0.0,0.0,75,0.00,,,0.00,WeatherDisplay:10.36,2013-08-07 05:53:00,
2013-08-07 00:58:00,76.3,67.8,29.85,NE,40,0.0,0.0,75,0.00,,,0.00,WeatherDisplay:10.36,2013-08-07 05:58:00,
2013-08-07 01:03:00,76.3,67.8,29.82,NE,40,0.0,0.0,75,0.00,,,0.00,WeatherDisplay:10.36,2013-08-07 06:03:00,
2013-08-07 01:08:00,76.3,67.8,29.82,NE,41,0.0,0.0,75,0.00,,,0.00,WeatherDisplay:10.36,2013-08-07 06:08:00,
2013-08-07 01:13:00,76.3,67.8,29.82,NE,40,0.0,0.0,75,0.00,,,0.00,WeatherDisplay:10.36,2013-08-07 06:13:00,
2013-08-07 01:18:00,76.1,67.6,29.82,NE,40,0.0,0.0,75,0.00,,,0.00,WeatherDisplay:10.36,2013-08-07 06:18:00,
2013-08-07 01:23:00,76.1,68.0,29.82,NE,41,0.0,0.0,76,0.00,,,0.00,WeatherDisplay:10.36,2013-08-07 06:23:00,
2013-08-07 01:28:00,75.9,67.8,29.82,NE,41,0.0,0.0,76,0.00,,,0.00,WeatherDisplay:10.36,2013-08-07 06:28:00,
2013-08-07 01:33:00,75.6,67.8,29.82,NE,41,0.0,0.0,77,0.00,,,0.00,WeatherDisplay:10.36,2013-08-07 06:33:00,
2013-08-07 01:38:00,75.6,67.8,29.82,NE,41,0.0,0.0,77,0.00,,,0.00,WeatherDisplay:10.36,2013-08-07 06:38:00,
2013-08-07 01:43:00,75.6,68.2,29.82,NE,40,0.0,0.0,78,0.00,,,0.00,WeatherDisplay:10.36,2013-08-07 06:43:00,
2013-08-07 01:48:00,75.4,68.4,29.82,NE,41,0.0,0.0,79,0.00,,,0.00,WeatherDisplay:10.36,2013-08-07 06:48:00,
2013-08-07 01:53:00,75.0,68.4,29.82,NE,40,0.0,0.0,80,0.00,,,0.00,WeatherDisplay:10.36,2013-08-07 06:53:00,
2013-08-07 01:58:00,74.8,68.3,29.82,NE,41,0.0,0.0,80,0.00,,,0.00,WeatherDisplay:10.36,2013-08-07 06:58:00,
2013-08-07 02:03:00,74.7,68.1,29.82,NE,40,0.0,0.0,80,0.00,,,0.00,WeatherDisplay:10.36,2013-08-07 07:03:00,
2013-08-07 02:08:00,74.7,68.1,29.82,NE,41,0.0,0.0,80,0.00,,,0.00,WeatherDisplay:10.36,2013-08-07 07:08:00,
2013-08-07 02:13:00,74.5,67.9,29.82,NE,41,0.0,0.0,80,0.00,,,0.00,WeatherDisplay:10.36,2013-08-07 07:13:00,
2013-08-07 02:18:00,74.5,67.9,29.82,NE,40,0.0,0.0,80,0.00,,,0.00,WeatherDisplay:10.36,2013-08-07 07:18:00,
2013-08-07 02:23:00,74.5,67.9,29.82,NE,41,0.0,0.0,80,0.00,,,0.00,WeatherDisplay:10.36,2013-08-07 07:23:00,
2013-08-07 02:28:00,74.5,67.9,29.82,NE,41,0.0,0.0,80,0.00,,,0.00,WeatherDisplay:10.36,2013-08-07 07:28:00,
2013-08-07 02:33:00,74.5,68.3,29.79,NE,39,0.0,0.0,81,0.00,,,0.00,WeatherDisplay:10.36,2013-08-07 07:33:00,
2013-08-07 02:38:00,74.5,68.3,29.79,NE,39,0.0,0.0,81,0.00,,,0.00,WeatherDisplay:10.36,2013-08-07 07:38:00,
2013-08-07 02:43:00,74.5,68.3,29.79,NE,39,0.0,0.0,81,0.00,,,0.00,WeatherDisplay:10.36,2013-08-07 07:43:00,
2013-08-07 02:48:00,74.5,68.3,29.79,NE,42,3.6,0.0,81,0.00,,,0.00,WeatherDisplay:10.36,2013-08-07 07:48:00,
2013-08-07 02:53:00,74.5,68.3,29.79,NE,40,3.6,3.6,81,0.00,,,0.00,WeatherDisplay:10.36,2013-08-07 07:53:00,
2013-08-07 02:58:00,74.5,68.3,29.79,NE,40,3.1,0.0,81,0.00,,,0.00,WeatherDisplay:10.36,2013-08-07 07:58:00,
2013-08-07 03:03:00,74.5,68.3,29.79,NE,40,0.0,0.0,81,0.00,,,0.00,WeatherDisplay:10.36,2013-08-07 08:03:00,
2013-08-07 03:08:00,74.5,68.3,29.79,NE,41,0.0,0.0,81,0.00,,,0.00,WeatherDisplay:10.36,2013-08-07 08:08:00,
2013-08-07 03:13:00,74.5,68.6,29.79,NE,41,0.0,0.0,82,0.00,,,0.00,WeatherDisplay:10.36,2013-08-07 08:13:00,
2013-08-07 03:18:00,74.5,68.6,29.79,NE,41,0.0,0.0,82,0.00,,,0.00,WeatherDisplay:10.36,2013-08-07 08:18:00,
2013-08-07 03:23:00,74.5,68.6,29.79,NE,39,3.1,0.0,82,0.00,,,0.00,WeatherDisplay:10.36,2013-08-07 08:23:00,
2013-08-07 03:28:00,74.5,68.6,29.79,NE,41,0.0,0.0,82,0.00,,,0.00,WeatherDisplay:10.36,2013-08-07 08:28:00,
2013-08-07 03:33:00,74.5,68.6,29.79,NE,40,4.0,0.0,82,0.00,,,0.00,WeatherDisplay:10.36,2013-08-07 08:33:00,
2013-08-07 03:38:00,74.5,68.6,29.79,NE,42,4.6,4.6,82,0.00,,,0.00,WeatherDisplay:10.36,2013-08-07 08:38:00,
2013-08-07 03:43:00,74.5,68.6,29.79,NE,43,4.9,4.9,82,0.00,,,0.00,WeatherDisplay:10.36,2013-08-07 08:43:00,
2013-08-07 03:48:00,74.5,68.6,29.79,NE,42,0.0,4.0,82,0.00,,,0.00,WeatherDisplay:10.36,2013-08-07 08:48:00,
2013-08-07 03:53:00,74.5,69.0,29.79,NE,39,5.8,5.8,83,0.00,,,0.00,WeatherDisplay:10.36,2013-08-07 08:53:00,
2013-08-07 03:58:00,74.5,69.0,29.79,NE,42,3.6,3.6,83,0.00,,,0.00,WeatherDisplay:10.36,2013-08-07 08:58:00,
2013-08-07 04:03:00,74.5,69.0,29.82,NE,41,0.0,0.0,83,0.00,,,0.00,WeatherDisplay:10.36,2013-08-07 09:03:00,
2013-08-07 04:08:00,74.5,69.0,29.82,NE,42,0.0,0.0,83,0.00,,,0.00,WeatherDisplay:10.36,2013-08-07 09:08:00,
2013-08-07 04:13:00,74.3,68.8,29.82,NE,42,0.0,0.0,83,0.00,,,0.00,WeatherDisplay:10.36,2013-08-07 09:13:00,
2013-08-07 04:18:00,74.3,68.8,29.82,NE,42,0.0,0.0,83,0.00,,,0.00,WeatherDisplay:10.36,2013-08-07 09:18:00,
2013-08-07 04:23:00,74.3,69.1,29.82,NE,42,0.0,0.0,84,0.00,,,0.00,WeatherDisplay:10.36,2013-08-07 09:23:00,
2013-08-07 04:28:00,74.3,69.1,29.82,NE,42,0.0,0.0,84,0.00,,,0.00,WeatherDisplay:10.36,2013-08-07 09:28:00,
2013-08-07 04:33:00,74.3,69.1,29.82,NE,42,2.7,0.0,84,0.00,,,0.00,WeatherDisplay:10.36,2013-08-07 09:33:00,
2013-08-07 04:38:00,74.3,69.1,29.82,NE,42,0.0,0.0,84,0.00,,,0.00,WeatherDisplay:10.36,2013-08-07 09:38:00,
2013-08-07 04:43:00,74.1,69.0,29.82,NE,43,3.6,4.0,84,0.00,,,0.00,WeatherDisplay:10.36,2013-08-07 09:43:00,
2013-08-07 04:48:00,73.9,69.1,29.82,NE,42,0.0,0.0,85,0.00,,,0.00,WeatherDisplay:10.36,2013-08-07 09:48:00,
2013-08-07 04:53:00,73.9,69.1,29.82,NE,42,0.0,0.0,85,0.00,,,0.00,WeatherDisplay:10.36,2013-08-07 09:53:00,
2013-08-07 04:58:00,73.8,69.0,29.82,NE,42,0.0,0.0,85,0.00,,,0.00,WeatherDisplay:10.36,2013-08-07 09:58:00,
2013-08-07 05:03:00,73.8,69.0,29.82,NE,42,0.0,0.0,85,0.00,,,0.00,WeatherDisplay:10.36,2013-08-07 10:03:00,
2013-08-07 05:08:00,73.8,69.0,29.82,NE,42,0.0,0.0,85,0.00,,,0.00,WeatherDisplay:10.36,2013-08-07 10:08:00,
2013-08-07 05:10:00,73.9,69.5,29.82,NE,42,0.0,0.0,86,0.00,,,0.00,WeatherDisplay:10.36,2013-08-07 10:10:00,
2013-08-07 05:13:00,73.9,69.5,29.82,NE,42,0.0,0.0,86,0.00,,,0.00,WeatherDisplay:10.36,2013-08-07 10:13:00,
2013-08-07 05:19:00,73.9,69.5,29.82,NE,42,0.0,0.0,86,0.00,,,0.00,WeatherDisplay:10.36,2013-08-07 10:19:00,
2013-08-07 05:25:00,74.3,69.8,29.79,NE,42,0.0,0.0,86,0.00,,,0.00,WeatherDisplay:10.36,2013-08-07 10:25:00,
2013-08-07 05:31:00,74.5,70.0,29.79,NE,42,0.0,0.0,86,0.00,,,0.00,WeatherDisplay:10.36,2013-08-07 10:31:00,
2013-08-07 05:36:00,74.5,70.0,29.79,NE,43,0.0,0.0,86,0.00,,,0.00,WeatherDisplay:10.36,2013-08-07 10:36:00,
2013-08-07 05:41:00,74.3,69.8,29.79,NE,42,0.0,0.0,86,0.00,,,0.00,WeatherDisplay:10.36,2013-08-07 10:41:00,
2013-08-07 05:46:00,74.3,70.2,29.82,NE,42,0.0,0.0,87,0.00,,,0.00,WeatherDisplay:10.36,2013-08-07 10:46:00,
2013-08-07 05:51:00,74.1,70.0,29.82,NE,43,0.0,0.0,87,0.00,,,0.00,WeatherDisplay:10.36,2013-08-07 10:51:00,
2013-08-07 05:56:00,74.1,70.0,29.82,NE,42,0.0,0.0,87,0.00,,,0.00,WeatherDisplay:10.36,2013-08-07 10:56:00,
2013-08-07 06:01:00,73.9,69.8,29.82,NE,42,0.0,0.0,87,0.00,,,0.00,WeatherDisplay:10.36,2013-08-07 11:01:00,
2013-08-07 06:06:00,73.8,69.6,29.82,NE,42,0.0,0.0,87,0.00,,,0.00,WeatherDisplay:10.36,2013-08-07 11:06:00,
2013-08-07 06:11:00,73.6,69.5,29.82,North,351,3.5,3.5,87,0.00,,,0.00,WeatherDisplay:10.36,2013-08-07 11:11:00,
2013-08-07 06:16:00,73.4,69.3,29.82,North,351,0.0,0.0,87,0.00,,,0.00,WeatherDisplay:10.36,2013-08-07 11:16:00,
2013-08-07 06:21:00,73.4,69.3,30.65,North,351,0.0,0.0,87,0.00,,,0.00,WeatherDisplay:10.36,2013-08-07 11:21:00,
2013-08-07 06:26:00,73.4,69.3,30.65,North,351,0.0,0.0,87,0.00,,,0.00,WeatherDisplay:10.36,2013-08-07 11:26:00,
2013-08-07 06:31:00,73.4,69.3,30.65,North,351,2.3,0.0,87,0.00,,,0.00,WeatherDisplay:10.36,2013-08-07 11:31:00,
2013-08-07 06:36:00,73.4,69.3,30.68,North,351,0.0,0.0,87,0.00,,,0.00,WeatherDisplay:10.36,2013-08-07 11:36:00,
2013-08-07 06:41:00,73.4,69.3,30.68,North,351,0.0,0.0,87,0.00,,,0.00,WeatherDisplay:10.36,2013-08-07 11:41:00,
2013-08-07 06:46:00,73.2,69.1,30.68,North,351,0.0,0.0,87,0.00,,,0.00,WeatherDisplay:10.36,2013-08-07 11:46:00,
2013-08-07 06:51:00,73.2,69.1,30.68,North,351,0.0,0.0,87,0.00,,,0.00,WeatherDisplay:10.36,2013-08-07 11:51:00,
2013-08-07 06:56:00,73.2,69.1,30.68,North,351,0.0,0.0,87,0.00,,,0.00,WeatherDisplay:10.36,2013-08-07 11:56:00,
2013-08-07 07:01:00,73.4,69.6,30.68,North,351,0.0,0.0,88,0.00,,,0.00,WeatherDisplay:10.36,2013-08-07 12:01:00,
2013-08-07 07:06:00,73.4,69.6,30.70,North,351,0.0,0.0,88,0.00,,,0.00,WeatherDisplay:10.36,2013-08-07 12:06:00,
2013-08-07 07:11:00,73.4,69.6,30.70,North,351,0.0,0.0,88,0.00,,,0.00,WeatherDisplay:10.36,2013-08-07 12:11:00,
2013-08-07 07:16:00,73.4,69.6,30.68,North,351,0.0,0.0,88,0.00,,,0.00,WeatherDisplay:10.36,2013-08-07 12:16:00,
2013-08-07 08:22:00,74.7,70.9,29.85,NE,41,4.5,4.5,88,0.00,CLR,CLR,0.00,WeatherDisplay:10.36,2013-08-07 13:22:00,
2013-08-07 11:27:00,81.3,69.7,29.85,NE,43,0.0,0.0,68,0.00,CLR,CLR,0.00,WeatherDisplay:10.36,2013-08-07 16:27:00,
2013-08-07 11:32:00,81.5,69.9,29.85,NE,42,0.0,0.0,68,0.00,CLR,CLR,0.00,WeatherDisplay:10.36,2013-08-07 16:32:00,
2013-08-07 11:37:00,81.7,69.7,29.85,NE,43,0.0,0.0,67,0.00,CLR,CLR,0.00,WeatherDisplay:10.36,2013-08-07 16:37:00,
2013-08-07 11:42:00,81.7,69.7,29.85,NE,43,0.0,0.0,67,0.00,CLR,CLR,0.00,WeatherDisplay:10.36,2013-08-07 16:42:00,
2013-08-07 11:47:00,81.7,69.7,29.85,NE,38,2.7,0.0,67,0.00,CLR,CLR,0.00,WeatherDisplay:10.36,2013-08-07 16:47:00,
2013-08-07 11:52:00,81.7,69.2,29.85,NE,38,0.0,0.0,66,0.00,CLR,CLR,0.00,WeatherDisplay:10.36,2013-08-07 16:52:00,
2013-08-07 11:57:00,81.5,69.0,29.85,NE,38,0.0,0.0,66,0.00,CLR,CLR,0.00,WeatherDisplay:10.36,2013-08-07 16:57:00,
2013-08-07 12:02:00,81.7,69.2,29.85,NE,38,3.5,0.0,66,0.00,CLR,CLR,0.00,WeatherDisplay:10.36,2013-08-07 17:02:00,
2013-08-07 12:07:00,81.9,69.4,29.85,NE,39,0.0,0.0,66,0.00,CLR,CLR,0.00,WeatherDisplay:10.36,2013-08-07 17:07:00,
2013-08-07 12:13:00,82.0,69.6,29.85,NE,41,0.0,0.0,66,0.00,CLR,CLR,0.00,WeatherDisplay:10.36,2013-08-07 17:13:00,
2013-08-07 12:18:00,82.2,69.3,29.85,NE,40,2.7,0.0,65,0.00,CLR,CLR,0.00,WeatherDisplay:10.36,2013-08-07 17:18:00,
2013-08-07 12:23:00,82.2,69.3,29.85,NE,40,3.5,0.0,65,0.00,CLR,CLR,0.00,WeatherDisplay:10.36,2013-08-07 17:23:00,
2013-08-07 12:28:00,82.2,69.3,29.85,NE,41,0.0,0.0,65,0.00,CLR,CLR,0.00,WeatherDisplay:10.36,2013-08-07 17:28:00,
2013-08-07 12:33:00,82.4,69.4,29.85,NE,40,0.0,0.0,65,0.00,CLR,CLR,0.00,WeatherDisplay:10.36,2013-08-07 17:33:00,
2013-08-07 12:38:00,82.6,69.6,29.85,NE,41,0.0,0.0,65,0.00,CLR,CLR,0.00,WeatherDisplay:10.36,2013-08-07 17:38:00,
2013-08-07 12:43:00,82.9,70.0,29.85,NE,41,0.0,0.0,65,0.00,CLR,CLR,0.00,WeatherDisplay:10.36,2013-08-07 17:43:00,
2013-08-07 12:48:00,83.3,70.3,29.85,NE,41,0.0,0.0,65,0.00,CLR,CLR,0.00,WeatherDisplay:10.36,2013-08-07 17:48:00,
2013-08-07 12:53:00,83.7,70.2,29.85,NE,38,0.0,0.0,64,0.00,CLR,CLR,0.00,WeatherDisplay:10.36,2013-08-07 17:53:00,
2013-08-07 12:59:00,84.0,70.1,29.85,NE,38,0.0,0.0,63,0.00,CLR,CLR,0.00,WeatherDisplay:10.36,2013-08-07 17:59:00,
2013-08-07 13:04:00,84.2,70.2,29.85,NE,39,0.0,0.0,63,0.00,CLR,CLR,0.00,WeatherDisplay:10.36,2013-08-07 18:04:00,
2013-08-07 13:09:00,84.4,70.4,29.85,NE,38,0.0,0.0,63,0.00,CLR,CLR,0.00,WeatherDisplay:10.36,2013-08-07 18:09:00,
2013-08-07 13:14:00,84.6,70.1,29.85,NE,38,0.0,0.0,62,0.00,CLR,CLR,0.00,WeatherDisplay:10.36,2013-08-07 18:14:00,
2013-08-07 13:19:00,84.7,70.3,29.85,NE,38,0.0,0.0,62,0.00,CLR,CLR,0.00,WeatherDisplay:10.36,2013-08-07 18:19:00,
2013-08-07 13:24:00,84.7,70.3,29.85,NE,38,0.0,0.0,62,0.00,CLR,CLR,0.00,WeatherDisplay:10.36,2013-08-07 18:24:00,
2013-08-07 13:29:00,84.9,70.0,29.85,NE,39,0.0,0.0,61,0.00,CLR,CLR,0.00,WeatherDisplay:10.36,2013-08-07 18:29:00,
2013-08-07 13:34:00,84.9,70.0,29.85,NE,39,0.0,0.0,61,0.00,CLR,CLR,0.00,WeatherDisplay:10.36,2013-08-07 18:34:00,
2013-08-07 13:39:00,85.1,70.1,29.85,NE,40,0.0,0.0,61,0.00,CLR,CLR,0.00,WeatherDisplay:10.36,2013-08-07 18:39:00,
2013-08-07 13:44:00,84.9,69.5,29.85,NE,38,0.0,0.0,60,0.00,CLR,CLR,0.00,WeatherDisplay:10.36,2013-08-07 18:44:00,
2013-08-07 13:49:00,85.1,69.7,29.85,NE,38,0.0,0.0,60,0.00,CLR,CLR,0.00,WeatherDisplay:10.36,2013-08-07 18:49:00,
2013-08-07 13:54:00,85.5,70.0,29.85,NE,38,0.0,0.0,60,0.00,CLR,CLR,0.00,WeatherDisplay:10.36,2013-08-07 18:54:00,
2013-08-07 13:59:00,85.8,70.3,29.85,NE,42,0.0,0.0,60,0.00,CLR,CLR,0.00,WeatherDisplay:10.36,2013-08-07 18:59:00,
2013-08-07 14:04:00,86.2,70.7,29.85,NE,43,0.0,0.0,60,0.00,CLR,CLR,0.00,WeatherDisplay:10.36,2013-08-07 19:04:00,
2013-08-07 14:09:00,86.5,71.0,29.85,NE,38,4.0,4.0,60,0.00,CLR,CLR,0.00,WeatherDisplay:10.36,2013-08-07 19:09:00,
2013-08-07 14:14:00,86.9,70.3,29.85,NE,39,4.9,4.9,58,0.00,CLR,CLR,0.00,WeatherDisplay:10.36,2013-08-07 19:14:00,
2013-08-07 14:19:00,87.4,70.3,29.85,NE,40,0.0,0.0,57,0.00,CLR,CLR,0.00,WeatherDisplay:10.36,2013-08-07 19:19:00,
2013-08-07 14:24:00,87.8,69.6,29.85,NE,41,4.0,4.0,55,0.00,CLR,CLR,0.00,WeatherDisplay:10.36,2013-08-07 19:24:00,
2013-08-07 14:29:00,88.0,69.8,29.85,NE,38,4.5,0.0,55,0.00,CLR,CLR,0.00,WeatherDisplay:10.36,2013-08-07 19:29:00,
2013-08-07 14:34:00,87.8,69.1,29.82,NE,39,4.9,0.0,54,0.00,CLR,CLR,0.00,WeatherDisplay:10.36,2013-08-07 19:34:00,
2013-08-07 14:39:00,87.8,69.1,29.82,NE,37,4.0,4.0,54,0.00,CLR,CLR,0.00,WeatherDisplay:10.36,2013-08-07 19:39:00,
2013-08-07 14:44:00,87.8,69.1,29.82,NE,39,3.6,0.0,54,0.00,CLR,CLR,0.00,WeatherDisplay:10.36,2013-08-07 19:44:00,
2013-08-07 14:49:00,87.8,69.1,29.82,NE,39,0.0,0.0,54,0.00,CLR,CLR,0.00,WeatherDisplay:10.36,2013-08-07 19:49:00,
2013-08-07 14:54:00,87.8,69.1,29.82,NE,43,0.0,0.0,54,0.00,CLR,CLR,0.00,WeatherDisplay:10.36,2013-08-07 19:54:00,
2013-08-07 14:59:00,88.0,69.3,29.82,NE,43,3.6,0.0,54,0.00,CLR,CLR,0.00,WeatherDisplay:10.36,2013-08-07 19:59:00,
2013-08-07 15:04:00,88.2,69.4,29.82,NE,38,3.1,0.0,54,0.00,CLR,CLR,0.00,WeatherDisplay:10.36,2013-08-07 20:04:00,
2013-08-07 15:09:00,88.2,69.4,29.82,NE,36,6.9,6.9,54,0.00,CLR,CLR,0.00,WeatherDisplay:10.36,2013-08-07 20:09:00,
2013-08-07 15:14:00,87.8,68.5,29.82,NE,39,5.4,0.0,53,0.00,CLR,CLR,0.00,WeatherDisplay:10.36,2013-08-07 20:14:00,
2013-08-07 15:19:00,87.3,68.6,29.82,NE,38,5.8,5.8,54,0.00,CLR,CLR,0.00,WeatherDisplay:10.36,2013-08-07 20:19:00,
2013-08-07 15:24:00,86.9,68.8,29.82,NE,39,0.0,3.1,55,0.00,CLR,CLR,0.00,WeatherDisplay:10.36,2013-08-07 20:24:00,
2013-08-07 15:29:00,86.2,68.1,29.82,NE,42,0.0,0.0,55,0.00,CLR,CLR,0.00,WeatherDisplay:10.36,2013-08-07 20:29:00,
2013-08-07 15:34:00,85.1,66.6,29.82,NE,43,0.0,0.0,54,0.12,RA,RA,0.12,WeatherDisplay:10.36,2013-08-07 20:34:00,
2013-08-07 15:39:00,84.2,67.3,29.82,NE,45,0.0,0.0,57,0.16,RA,RA,0.16,WeatherDisplay:10.36,2013-08-07 20:39:00,
2013-08-07 15:44:00,83.7,67.8,29.82,NE,44,0.0,0.0,59,0.16,RA,RA,0.16,WeatherDisplay:10.36,2013-08-07 20:44:00,
2013-08-07 15:49:00,83.3,68.4,29.82,NE,42,0.0,0.0,61,0.16,,,0.16,WeatherDisplay:10.36,2013-08-07 20:49:00,
2013-08-07 15:54:00,83.1,69.2,29.82,NE,45,0.0,0.0,63,0.16,,,0.16,WeatherDisplay:10.36,2013-08-07 20:54:00,
2013-08-07 15:59:00,82.9,69.5,29.82,NE,44,0.0,0.0,64,0.16,,,0.16,WeatherDisplay:10.36,2013-08-07 20:59:00,
2013-08-07 16:04:00,82.9,70.0,29.85,NE,43,0.0,0.0,65,0.16,,,0.16,WeatherDisplay:10.36,2013-08-07 21:04:00,
2013-08-07 16:09:00,82.8,69.8,29.85,NE,42,4.0,4.0,65,0.16,,,0.16,WeatherDisplay:10.36,2013-08-07 21:09:00,
2013-08-07 16:14:00,82.4,69.4,29.85,NE,43,0.0,0.0,65,0.16,,,0.16,WeatherDisplay:10.36,2013-08-07 21:14:00,
2013-08-07 16:19:00,82.0,69.6,29.85,North,351,4.5,4.5,66,0.16,,,0.16,WeatherDisplay:10.36,2013-08-07 21:19:00,
2013-08-07 16:24:00,81.1,68.7,29.85,NE,39,3.6,0.0,66,0.16,,,0.16,WeatherDisplay:10.36,2013-08-07 21:24:00,
2013-08-07 16:29:00,80.8,68.8,29.85,NE,39,0.0,0.0,67,0.16,,,0.16,WeatherDisplay:10.36,2013-08-07 21:29:00,
2013-08-07 16:34:00,80.6,69.1,29.85,NE,38,5.4,5.4,68,0.04,,,0.16,WeatherDisplay:10.36,2013-08-07 21:34:00,
2013-08-07 16:39:00,80.2,69.1,29.85,NE,43,0.0,0.0,69,0.00,,,0.16,WeatherDisplay:10.36,2013-08-07 21:39:00,
2013-08-07 16:44:00,80.1,69.0,29.85,NE,38,0.0,0.0,69,0.00,,,0.16,WeatherDisplay:10.36,2013-08-07 21:44:00,
2013-08-07 16:49:00,79.9,69.2,29.82,NE,43,0.0,0.0,70,0.00,,,0.16,WeatherDisplay:10.36,2013-08-07 21:49:00,
2013-08-07 16:54:00,79.9,69.2,29.82,NE,38,0.0,0.0,70,0.00,,,0.16,WeatherDisplay:10.36,2013-08-07 21:54:00,
2013-08-07 16:59:00,79.9,69.6,29.82,NE,39,0.0,0.0,71,0.00,,,0.16,WeatherDisplay:10.36,2013-08-07 21:59:00,
2013-08-07 17:04:00,79.9,69.6,29.82,NE,39,0.0,0.0,71,0.00,,,0.16,WeatherDisplay:10.36,2013-08-07 22:04:00,
2013-08-07 17:09:00,79.9,69.6,29.82,NE,38,0.0,0.0,71,0.00,,,0.16,WeatherDisplay:10.36,2013-08-07 22:09:00,
2013-08-07 17:14:00,79.9,69.6,29.82,NE,43,0.0,0.0,71,0.00,,,0.16,WeatherDisplay:10.36,2013-08-07 22:14:00,
2013-08-07 17:19:00,79.7,69.9,29.82,NE,41,0.0,0.0,72,0.00,,,0.16,WeatherDisplay:10.36,2013-08-07 22:19:00,
2013-08-07 17:24:00,79.5,69.7,29.82,NE,39,0.0,0.0,72,0.00,,,0.16,WeatherDisplay:10.36,2013-08-07 22:24:00,
2013-08-07 17:29:00,79.3,69.5,29.82,NE,41,0.0,0.0,72,0.00,,,0.16,WeatherDisplay:10.36,2013-08-07 22:29:00,
2013-08-07 17:34:00,79.2,69.8,29.85,NE,39,0.0,0.0,73,0.00,,,0.16,WeatherDisplay:10.36,2013-08-07 22:34:00,
2013-08-07 17:39:00,79.2,69.8,29.85,NE,41,0.0,0.0,73,0.00,,,0.16,WeatherDisplay:10.36,2013-08-07 22:39:00,
2013-08-07 17:44:00,79.0,69.6,29.85,NE,39,0.0,0.0,73,0.00,,,0.16,WeatherDisplay:10.36,2013-08-07 22:44:00,
2013-08-07 17:49:00,79.0,69.6,29.85,NE,39,0.0,0.0,73,0.00,,,0.16,WeatherDisplay:10.36,2013-08-07 22:49:00,
2013-08-07 17:54:00,78.8,69.8,29.85,NE,39,0.0,0.0,74,0.00,,,0.16,WeatherDisplay:10.36,2013-08-07 22:54:00,
2013-08-07 17:59:00,78.8,69.8,29.85,NE,39,0.0,0.0,74,0.00,,,0.16,WeatherDisplay:10.36,2013-08-07 22:59:00,
2013-08-07 18:04:00,78.8,70.2,29.85,NE,39,0.0,0.0,75,0.00,,,0.16,WeatherDisplay:10.36,2013-08-07 23:04:00,
2013-08-07 18:09:00,78.8,70.2,29.85,NE,41,0.0,0.0,75,0.00,,,0.16,WeatherDisplay:10.36,2013-08-07 23:09:00,
2013-08-07 18:14:00,78.8,70.2,29.85,NE,40,0.0,0.0,75,0.00,,,0.16,WeatherDisplay:10.36,2013-08-07 23:14:00,
2013-08-07 18:19:00,79.0,70.8,29.85,NE,41,0.0,0.0,76,0.00,,,0.16,WeatherDisplay:10.36,2013-08-07 23:19:00,
2013-08-07 18:24:00,79.0,70.8,29.85,NE,39,0.0,0.0,76,0.00,,,0.16,WeatherDisplay:10.36,2013-08-07 23:24:00,
2013-08-07 18:29:00,79.0,71.2,29.85,NE,40,0.0,0.0,77,0.00,,,0.16,WeatherDisplay:10.36,2013-08-07 23:29:00,
2013-08-07 18:34:00,79.0,71.2,29.85,NE,43,0.0,0.0,77,0.00,,,0.16,WeatherDisplay:10.36,2013-08-07 23:34:00,
2013-08-07 18:40:00,79.0,71.2,29.85,NE,43,0.0,0.0,77,0.00,,,0.16,WeatherDisplay:10.36,2013-08-07 23:40:00,
2013-08-07 18:45:00,79.2,71.3,29.85,NE,41,0.0,0.0,77,0.00,,,0.16,WeatherDisplay:10.36,2013-08-07 23:45:00,
2013-08-07 18:50:00,79.3,71.9,29.88,NE,40,0.0,0.0,78,0.00,,,0.16,WeatherDisplay:10.36,2013-08-07 23:50:00,
2013-08-07 18:55:00,79.5,72.1,29.88,NE,41,0.0,0.0,78,0.00,,,0.16,WeatherDisplay:10.36,2013-08-07 23:55:00,
2013-08-07 19:00:00,79.7,72.2,29.88,NE,42,0.0,0.0,78,0.00,,,0.16,WeatherDisplay:10.36,2013-08-08 00:00:00,
2013-08-07 19:05:00,79.7,72.2,29.88,NE,41,0.0,0.0,78,0.00,,,0.16,WeatherDisplay:10.36,2013-08-08 00:05:00,
2013-08-07 19:10:00,79.9,72.4,29.88,NE,39,0.0,0.0,78,0.00,,,0.16,WeatherDisplay:10.36,2013-08-08 00:10:00,
2013-08-07 19:15:00,79.9,72.4,29.88,NE,41,0.0,0.0,78,0.00,,,0.16,WeatherDisplay:10.36,2013-08-08 00:15:00,
2013-08-07 19:20:00,79.9,72.4,29.88,NE,41,0.0,0.0,78,0.00,,,0.16,WeatherDisplay:10.36,2013-08-08 00:20:00,
2013-08-07 19:25:00,79.9,72.4,29.88,NE,40,0.0,0.0,78,0.00,,,0.16,WeatherDisplay:10.36,2013-08-08 00:25:00,
2013-08-07 19:30:00,79.7,72.2,29.88,NE,41,0.0,0.0,78,0.00,,,0.16,WeatherDisplay:10.36,2013-08-08 00:30:00,
2013-08-07 19:35:00,79.5,72.1,29.88,NE,40,0.0,0.0,78,0.00,,,0.16,WeatherDisplay:10.36,2013-08-08 00:35:00,
2013-08-07 19:40:00,79.3,71.9,29.88,NE,41,0.0,0.0,78,0.00,,,0.16,WeatherDisplay:10.36,2013-08-08 00:40:00,
2013-08-07 19:45:00,79.3,71.9,29.88,NE,43,0.0,0.0,78,0.00,,,0.16,WeatherDisplay:10.36,2013-08-08 00:45:00,
2013-08-07 19:50:00,79.2,71.7,29.88,NE,42,0.0,0.0,78,0.00,,,0.16,WeatherDisplay:10.36,2013-08-08 00:50:00,
2013-08-07 19:55:00,78.8,71.4,29.88,NE,41,0.0,0.0,78,0.00,,,0.16,WeatherDisplay:10.36,2013-08-08 00:55:00,
2013-08-07 20:00:00,78.6,71.2,29.88,NE,43,0.0,0.0,78,0.00,,,0.16,WeatherDisplay:10.36,2013-08-08 01:00:00,
2013-08-07 20:05:00,78.4,71.4,29.88,NE,40,0.0,0.0,79,0.00,,,0.16,WeatherDisplay:10.36,2013-08-08 01:05:00,
2013-08-07 20:10:00,78.3,71.2,29.88,NE,40,0.0,0.0,79,0.00,,,0.16,WeatherDisplay:10.36,2013-08-08 01:10:00,
2013-08-07 20:15:00,78.1,71.0,29.88,NE,41,0.0,0.0,79,0.00,,,0.16,WeatherDisplay:10.36,2013-08-08 01:15:00,
2013-08-07 20:20:00,77.9,70.9,29.88,NE,42,0.0,0.0,79,0.00,,,0.16,WeatherDisplay:10.36,2013-08-08 01:20:00,
2013-08-07 20:25:00,77.9,71.2,29.88,NE,40,0.0,0.0,80,0.00,,,0.16,WeatherDisplay:10.36,2013-08-08 01:25:00,
2013-08-07 20:30:00,77.7,71.1,29.88,NE,42,0.0,0.0,80,0.00,,,0.16,WeatherDisplay:10.36,2013-08-08 01:30:00,
2013-08-07 20:35:00,77.5,70.9,29.88,NE,41,0.0,0.0,80,0.00,,,0.16,WeatherDisplay:10.36,2013-08-08 01:35:00,
2013-08-07 20:40:00,77.4,70.7,29.88,NE,41,0.0,0.0,80,0.00,,,0.16,WeatherDisplay:10.36,2013-08-08 01:40:00,
2013-08-07 20:45:00,77.2,70.5,29.88,NE,41,0.0,0.0,80,0.00,,,0.16,WeatherDisplay:10.36,2013-08-08 01:45:00,
2013-08-07 20:50:00,77.0,70.4,29.91,NE,40,0.0,0.0,80,0.00,,,0.16,WeatherDisplay:10.36,2013-08-08 01:50:00,
2013-08-07 20:55:00,77.0,70.7,29.91,NE,40,0.0,0.0,81,0.00,,,0.16,WeatherDisplay:10.36,2013-08-08 01:55:00,
2013-08-07 21:00:00,76.8,70.5,29.91,NE,42,0.0,0.0,81,0.00,,,0.16,WeatherDisplay:10.36,2013-08-08 02:00:00,
2013-08-07 21:05:00,76.8,70.5,29.91,NE,42,0.0,0.0,81,0.00,,,0.16,WeatherDisplay:10.36,2013-08-08 02:05:00,
2013-08-07 21:10:00,76.6,70.4,29.91,NE,43,0.0,0.0,81,0.00,,,0.16,WeatherDisplay:10.36,2013-08-08 02:10:00,
2013-08-07 21:15:00,76.6,70.7,29.91,NE,40,0.0,0.0,82,0.00,,,0.16,WeatherDisplay:10.36,2013-08-08 02:15:00,
2013-08-07 21:20:00,76.5,70.6,29.91,NE,41,0.0,0.0,82,0.00,,,0.16,WeatherDisplay:10.36,2013-08-08 02:20:00,
2013-08-07 21:25:00,76.5,70.6,29.91,NE,41,0.0,0.0,82,0.00,,,0.16,WeatherDisplay:10.36,2013-08-08 02:25:00,
2013-08-07 21:30:00,76.3,70.4,29.91,North,351,0.0,0.0,82,0.00,,,0.16,WeatherDisplay:10.36,2013-08-08 02:30:00,
2013-08-07 21:35:00,76.3,70.4,30.74,North,351,0.0,0.0,82,0.00,,,0.16,WeatherDisplay:10.36,2013-08-08 02:35:00,
2013-08-07 21:40:00,76.1,70.2,30.74,North,351,0.0,0.0,82,0.00,,,0.16,WeatherDisplay:10.36,2013-08-08 02:40:00,
2013-08-07 21:45:00,76.1,70.6,30.74,North,351,0.0,0.0,83,0.00,,,0.16,WeatherDisplay:10.36,2013-08-08 02:45:00,
2013-08-07 21:50:00,76.1,70.6,30.74,North,351,0.0,0.0,83,0.00,,,0.16,WeatherDisplay:10.36,2013-08-08 02:50:00,
2013-08-07 21:55:00,75.9,70.4,30.74,North,351,0.0,0.0,83,0.00,,,0.16,WeatherDisplay:10.36,2013-08-08 02:55:00,
2013-08-07 22:00:00,75.7,70.2,30.74,North,351,6.9,6.9,83,0.00,,,0.16,WeatherDisplay:10.36,2013-08-08 03:00:00,
2013-08-07 22:05:00,75.6,69.7,29.91,NNE,30,4.9,4.9,82,0.00,,,0.16,WeatherDisplay:10.36,2013-08-08 03:05:00,
2013-08-07 22:10:00,75.7,69.9,29.91,North,351,4.0,0.0,82,0.00,,,0.16,WeatherDisplay:10.36,2013-08-08 03:10:00,
2013-08-07 22:15:00,75.6,69.3,29.91,NE,41,3.5,0.0,81,0.00,,,0.16,WeatherDisplay:10.36,2013-08-08 03:15:00,
2013-08-07 22:20:00,75.6,69.3,29.91,NE,40,0.0,0.0,81,0.00,,,0.16,WeatherDisplay:10.36,2013-08-08 03:20:00,
2013-08-07 22:25:00,75.6,69.3,29.91,NE,42,0.0,0.0,81,0.00,,,0.16,WeatherDisplay:10.36,2013-08-08 03:25:00,
2013-08-07 22:30:00,75.4,68.8,29.91,North,351,4.9,0.0,80,0.00,,,0.16,WeatherDisplay:10.36,2013-08-08 03:30:00,
2013-08-07 22:35:00,75.2,68.6,29.91,North,351,4.6,4.6,80,0.00,,,0.16,WeatherDisplay:10.36,2013-08-08 03:35:00,
2013-08-07 22:40:00,75.0,68.4,29.91,NE,43,5.8,5.8,80,0.00,,,0.16,WeatherDisplay:10.36,2013-08-08 03:40:00,
2013-08-07 22:45:00,74.8,67.9,29.91,North,351,6.9,6.9,79,0.00,,,0.16,WeatherDisplay:10.36,2013-08-08 03:45:00,
2013-08-07 22:50:00,74.7,67.3,29.94,NE,42,5.8,5.8,78,0.00,,,0.16,WeatherDisplay:10.36,2013-08-08 03:50:00,
2013-08-07 22:51:00,74.7,67.3,29.94,East,80,4.9,0.0,78,0.00,,,0.16,WeatherDisplay:10.36,2013-08-08 03:51:00,
2013-08-07 22:56:00,74.7,67.0,29.94,North,351,6.9,6.9,77,0.00,,,0.16,WeatherDisplay:10.36,2013-08-08 03:56:00,
2013-08-07 23:01:00,74.5,66.8,29.94,NE,44,4.0,0.0,77,0.00,,,0.16,WeatherDisplay:10.36,2013-08-08 04:01:00,
2013-08-07 23:02:00,74.5,66.8,29.94,NE,43,3.5,0.0,77,0.00,,,0.16,WeatherDisplay:10.36,2013-08-08 04:02:00,
2013-08-07 23:03:00,74.5,66.8,29.94,NE,43,3.1,0.0,77,0.00,,,0.16,WeatherDisplay:10.36,2013-08-08 04:03:00,
2013-08-07 23:05:00,74.5,66.4,29.94,NE,42,4.9,4.9,76,0.00,,,0.16,WeatherDisplay:10.36,2013-08-08 04:05:00,
2013-08-07 23:06:00,74.3,66.2,29.94,North,351,7.4,7.4,76,0.00,,,0.16,WeatherDisplay:10.36,2013-08-08 04:06:00,
2013-08-07 23:11:00,74.3,66.2,29.94,North,351,6.9,6.9,76,0.00,,,0.16,WeatherDisplay:10.36,2013-08-08 04:11:00,
2013-08-07 23:16:00,74.1,65.7,29.94,NE,43,4.9,4.9,75,0.00,,,0.16,WeatherDisplay:10.36,2013-08-08 04:16:00,
2013-08-07 23:21:00,73.9,65.5,29.94,NE,42,4.5,4.5,75,0.00,,,0.16,WeatherDisplay:10.36,2013-08-08 04:21:00,
2013-08-07 23:26:00,73.8,65.0,29.94,NE,40,4.5,0.0,74,0.00,,,0.16,WeatherDisplay:10.36,2013-08-08 04:26:00,
2013-08-07 23:31:00,73.6,64.8,29.94,NE,43,5.8,5.8,74,0.00,,,0.16,WeatherDisplay:10.36,2013-08-08 04:31:00,
2013-08-07 23:36:00,73.6,64.4,29.94,North,351,9.2,0.0,73,0.00,,,0.16,WeatherDisplay:10.36,2013-08-08 04:36:00,
2013-08-07 23:41:00,73.4,64.2,29.94,North,351,5.8,5.8,73,0.00,,,0.16,WeatherDisplay:10.36,2013-08-08 04:41:00,
2013-08-07 23:46:00,73.4,64.2,29.94,West,263,3.6,0.0,73,0.00,,,0.16,WeatherDisplay:10.36,2013-08-08 04:46:00,
2013-08-07 23:51:00,73.2,63.6,29.94,North,351,5.8,5.8,72,0.00,,,0.16,WeatherDisplay:10.36,2013-08-08 04:51:00,
2013-08-07 23:56:00,73.0,63.5,29.94,NE,41,3.6,3.6,72,0.00,,,0.16,WeatherDisplay:10.36,2013-08-08 04:56:00,